Time;durP1;ratioP1;P1;durP2;ratioP2;P2;SDS_P1;SDS_P2;PMS_P1;PMS_P2;Temp;Humidity;BMP_temperature;BMP_pressure;BME280_temperature;BME280_humidity;BME280_pressure;Samples;Min_cycle;Max_cycle;Signal;HPM_P1;HPM_P2
2021/08/29 00:01:56;;;;;;;0.47;0.10;;;15.30;99.90;;;;;;5035031;28;20052;-75
2021/08/29 00:04:22;;;;;;;2.05;0.10;;;15.30;99.90;;;;;;5048012;28;20033;-76
2021/08/29 00:06:47;;;;;;;0.98;0.00;;;15.30;99.90;;;;;;5015977;28;20112;-76
2021/08/29 00:09:13;;;;;;;4.95;0.38;;;15.40;99.90;;;;;;5054823;22;20098;-76
2021/08/29 00:11:38;;;;;;;2.17;0.10;;;15.40;99.90;;;;;;5053362;28;20033;-76
2021/08/29 00:14:04;;;;;;;4.15;0.28;;;15.30;99.90;;;;;;5053298;28;20040;-76
2021/08/29 00:16:33;;;;;;;3.22;0.55;;;15.40;99.90;;;;;;5035534;28;20051;-76
2021/08/29 00:18:59;;;;;;;4.40;0.20;;;15.40;99.90;;;;;;5053026;28;20053;-76
2021/08/29 00:21:24;;;;;;;4.60;1.05;;;15.40;99.90;;;;;;5053326;28;20048;-77
2021/08/29 00:23:50;;;;;;;4.88;0.98;;;15.40;99.90;;;;;;5053218;28;20390;-77
2021/08/29 00:26:15;;;;;;;3.13;0.68;;;15.40;99.90;;;;;;5053147;28;20386;-76
2021/08/29 00:28:41;;;;;;;1.77;0.10;;;15.40;99.90;;;;;;5053152;28;20110;-77
2021/08/29 00:31:06;;;;;;;2.17;0.20;;;15.40;99.90;;;;;;5035545;28;20028;-77
2021/08/29 00:33:32;;;;;;;2.38;0.10;;;15.40;99.90;;;;;;5053109;28;20025;-77
2021/08/29 00:35:58;;;;;;;3.78;0.10;;;15.40;99.90;;;;;;5035276;28;20075;-76
2021/08/29 00:38:24;;;;;;;6.35;0.10;;;15.40;99.90;;;;;;5035376;28;20398;-77
2021/08/29 00:40:50;;;;;;;2.10;0.52;;;15.40;99.90;;;;;;5035206;28;20025;-76
2021/08/29 00:43:15;;;;;;;3.03;0.10;;;15.40;99.90;;;;;;5036407;28;20483;-76
2021/08/29 00:45:42;;;;;;;1.27;0.10;;;15.40;99.90;;;;;;5057241;28;20051;-77
2021/08/29 00:48:11;;;;;;;5.15;0.57;;;15.40;99.90;;;;;;5057404;28;20386;-75
2021/08/29 00:50:43;;;;;;;1.95;0.50;;;15.40;99.90;;;;;;5038855;28;20486;-76
2021/08/29 00:53:08;;;;;;;5.38;0.22;;;15.40;99.90;;;;;;5057446;28;20052;-76
2021/08/29 00:55:38;;;;;;;1.55;0.10;;;15.40;99.90;;;;;;5039164;28;20433;-76
2021/08/29 00:58:04;;;;;;;2.13;0.40;;;15.40;99.90;;;;;;5057358;28;20363;-77
2021/08/29 01:00:31;;;;;;;4.78;0.50;;;15.50;99.90;;;;;;5056977;28;20039;-77
2021/08/29 01:02:58;;;;;;;4.23;0.70;;;15.50;99.90;;;;;;5039047;28;20061;-77
2021/08/29 01:05:31;;;;;;;1.45;0.28;;;15.50;99.90;;;;;;5056849;28;20274;-78
2021/08/29 01:08:05;;;;;;;4.68;0.85;;;15.50;99.90;;;;;;5056709;28;20508;-75
2021/08/29 01:10:41;;;;;;;5.55;0.95;;;15.60;99.90;;;;;;5056644;28;20554;-76
2021/08/29 01:13:09;;;;;;;5.10;0.55;;;15.50;99.90;;;;;;5057006;28;20033;-76
2021/08/29 01:15:36;;;;;;;5.35;0.38;;;15.60;99.90;;;;;;5056713;28;20475;-75
2021/08/29 01:18:02;;;;;;;6.75;0.80;;;15.60;99.90;;;;;;5056609;28;20020;-78
2021/08/29 01:20:52;;;;;;;4.82;0.43;;;15.60;99.90;;;;;;5038984;28;20115;-77
2021/08/29 01:23:20;;;;;;;0.95;0.20;;;15.60;99.90;;;;;;5056840;28;20029;-77
2021/08/29 01:25:53;;;;;;;5.93;0.75;;;15.60;99.90;;;;;;5039369;28;20029;-77
2021/08/29 01:28:24;;;;;;;4.22;0.28;;;15.60;99.90;;;;;;5056654;28;20474;-77
2021/08/29 01:30:50;;;;;;;0.70;0.10;;;15.60;99.90;;;;;;5038812;28;20035;-77
2021/08/29 01:33:17;;;;;;;4.93;0.38;;;15.60;99.90;;;;;;5056930;28;20021;-77
2021/08/29 01:35:43;;;;;;;4.78;0.30;;;15.70;99.90;;;;;;5038547;28;20021;-76
2021/08/29 01:38:10;;;;;;;6.97;0.35;;;15.70;99.90;;;;;;5056275;28;20385;-77
2021/08/29 01:40:37;;;;;;;5.60;0.52;;;15.70;99.90;;;;;;5038474;28;20067;-75
2021/08/29 01:43:04;;;;;;;4.10;0.52;;;15.70;99.90;;;;;;5038180;28;20028;-76
2021/08/29 01:45:31;;;;;;;2.70;0.32;;;15.70;99.90;;;;;;5056622;28;20025;-75
2021/08/29 01:47:58;;;;;;;1.23;0.43;;;15.70;99.90;;;;;;5038309;28;20032;-77
2021/08/29 01:50:25;;;;;;;5.78;0.85;;;15.80;99.90;;;;;;5038121;28;20123;-76
2021/08/29 01:52:51;;;;;;;0.80;0.17;;;15.80;99.90;;;;;;5055925;28;20025;-74
2021/08/29 01:55:17;;;;;;;3.00;0.30;;;15.80;99.90;;;;;;5037823;28;20032;-74
2021/08/29 01:57:43;;;;;;;2.30;0.43;;;15.80;99.90;;;;;;5055829;28;20029;-76
2021/08/29 02:00:09;;;;;;;3.58;0.38;;;15.70;99.90;;;;;;5037786;28;20474;-76
2021/08/29 02:02:35;;;;;;;2.22;0.20;;;15.70;99.90;;;;;;5038922;28;20032;-75
2021/08/29 02:05:00;;;;;;;5.22;1.13;;;15.70;99.90;;;;;;5037703;28;20017;-75
2021/08/29 02:07:32;;;;;;;2.30;0.20;;;15.70;99.90;;;;;;5055651;28;20036;-76
2021/08/29 02:10:07;;;;;;;3.58;0.43;;;15.60;99.90;;;;;;5055515;28;20035;-75
2021/08/29 02:12:37;;;;;;;2.13;0.30;;;15.60;99.90;;;;;;5056015;28;20055;-76
2021/08/29 02:15:15;;;;;;;1.52;0.20;;;15.60;99.90;;;;;;5056354;28;20112;-76
2021/08/29 02:17:41;;;;;;;4.03;0.60;;;15.60;99.90;;;;;;5037661;28;20489;-76
2021/08/29 02:20:12;;;;;;;3.03;0.43;;;15.60;99.90;;;;;;5055738;28;20032;-75
2021/08/29 02:22:39;;;;;;;4.07;0.32;;;15.50;99.90;;;;;;5055711;28;20505;-76
2021/08/29 02:25:07;;;;;;;5.30;0.82;;;15.50;99.90;;;;;;5037526;28;20082;-75
2021/08/29 02:27:35;;;;;;;6.57;0.85;;;15.50;99.90;;;;;;5055138;28;20544;-75
2021/08/29 02:30:01;;;;;;;2.17;0.67;;;15.50;99.90;;;;;;5055485;28;20107;-75
2021/08/29 02:32:28;;;;;;;2.83;0.15;;;15.50;99.90;;;;;;5055219;28;20128;-76
2021/08/29 02:34:54;;;;;;;1.63;0.63;;;15.40;99.90;;;;;;5037335;28;20017;-75
2021/08/29 02:37:20;;;;;;;3.55;0.38;;;15.50;99.90;;;;;;5037309;28;20067;-77
2021/08/29 02:39:46;;;;;;;2.28;0.45;;;15.50;99.90;;;;;;5055129;28;20044;-77
2021/08/29 02:42:12;;;;;;;1.95;0.30;;;15.40;99.90;;;;;;5055482;28;20013;-77
2021/08/29 02:44:41;;;;;;;1.70;0.47;;;15.40;99.90;;;;;;5037477;28;20079;-77
2021/08/29 02:47:07;;;;;;;3.10;0.73;;;15.40;99.90;;;;;;5037165;28;20445;-75
2021/08/29 02:49:35;;;;;;;4.55;0.13;;;15.40;99.90;;;;;;5054905;28;20021;-75
2021/08/29 02:52:01;;;;;;;2.53;0.47;;;15.40;99.90;;;;;;5055254;28;20053;-76
2021/08/29 02:54:28;;;;;;;4.88;0.70;;;15.40;99.90;;;;;;5036830;28;20025;-76
2021/08/29 02:56:57;;;;;;;2.38;0.38;;;15.40;99.90;;;;;;5054800;28;20059;-76
2021/08/29 02:59:22;;;;;;;2.15;0.38;;;15.40;99.90;;;;;;5054786;28;20017;-77
2021/08/29 03:01:48;;;;;;;4.20;0.30;;;15.40;99.90;;;;;;5036804;28;20029;-77
2021/08/29 03:04:14;;;;;;;4.85;1.42;;;15.40;99.90;;;;;;5054604;28;20035;-77
2021/08/29 03:06:41;;;;;;;5.40;0.55;;;15.40;99.90;;;;;;5036409;28;20521;-76
2021/08/29 03:09:07;;;;;;;3.90;1.08;;;15.30;99.90;;;;;;5054325;28;20029;-76
2021/08/29 03:11:33;;;;;;;3.70;0.52;;;15.30;99.90;;;;;;5036502;28;20021;-76
2021/08/29 03:14:00;;;;;;;0.82;0.20;;;15.30;99.90;;;;;;5036481;28;20116;-77
2021/08/29 03:16:26;;;;;;;2.22;0.45;;;15.20;99.90;;;;;;5054338;28;20052;-77
2021/08/29 03:18:52;;;;;;;1.13;0.30;;;15.20;99.90;;;;;;5036554;28;20520;-76
2021/08/29 03:21:18;;;;;;;3.42;0.38;;;15.10;99.90;;;;;;5054320;28;20056;-75
2021/08/29 03:23:44;;;;;;;1.25;0.10;;;15.10;99.90;;;;;;5036382;28;20052;-76
2021/08/29 03:26:09;;;;;;;3.85;0.60;;;15.10;99.90;;;;;;5054531;28;20147;-75
2021/08/29 03:28:35;;;;;;;3.10;0.32;;;15.10;99.90;;;;;;5036186;28;20091;-75
2021/08/29 03:31:00;;;;;;;4.13;0.95;;;15.10;99.90;;;;;;5054077;28;20028;-76
2021/08/29 03:33:28;;;;;;;3.55;0.65;;;15.10;99.90;;;;;;5036075;28;20021;-76
2021/08/29 03:35:55;;;;;;;4.72;0.57;;;15.20;99.90;;;;;;5036160;28;20021;-76
2021/08/29 03:38:21;;;;;;;1.67;0.47;;;15.10;99.90;;;;;;5054156;28;20021;-77
2021/08/29 03:40:50;;;;;;;5.18;0.65;;;15.10;99.90;;;;;;5054059;28;20394;-75
2021/08/29 03:43:16;;;;;;;2.65;0.28;;;15.10;99.90;;;;;;5053760;28;20106;-75
2021/08/29 03:45:42;;;;;;;5.40;0.10;;;15.10;99.90;;;;;;5053897;28;20031;-75
2021/08/29 03:48:11;;;;;;;6.20;0.22;;;15.20;99.90;;;;;;5053831;28;20044;-74
2021/08/29 03:50:37;;;;;;;2.33;0.20;;;15.20;99.90;;;;;;5035837;28;20029;-77
2021/08/29 03:53:03;;;;;;;1.88;0.30;;;15.20;99.90;;;;;;5053676;28;20112;-76
2021/08/29 03:55:29;;;;;;;5.28;0.47;;;15.20;99.90;;;;;;5053874;28;20025;-76
2021/08/29 03:57:56;;;;;;;3.67;0.22;;;15.20;99.90;;;;;;5035890;28;20024;-75
2021/08/29 04:00:25;;;;;;;5.90;0.68;;;15.20;99.90;;;;;;5054158;28;20143;-74
2021/08/29 04:02:51;;;;;;;3.50;0.40;;;15.20;99.90;;;;;;5053461;28;20108;-74
2021/08/29 04:05:16;;;;;;;5.07;0.55;;;15.20;99.90;;;;;;5053577;28;20068;-75
2021/08/29 04:07:49;;;;;;;3.45;1.05;;;15.20;99.90;;;;;;5053674;28;20130;-76
2021/08/29 04:10:16;;;;;;;2.13;0.20;;;15.10;99.90;;;;;;5102876;22;20451;-75
2021/08/29 04:12:58;;;;;;;4.20;0.65;;;15.20;99.90;;;;;;5093633;28;20028;-76
2021/08/29 04:15:24;;;;;;;5.75;0.50;;;15.20;99.90;;;;;;5073540;28;20469;-75
2021/08/29 04:17:50;;;;;;;2.55;0.40;;;15.20;99.90;;;;;;5072537;28;20506;-75
2021/08/29 04:20:17;;;;;;;2.97;0.57;;;15.20;99.90;;;;;;5073431;28;20027;-75
2021/08/29 04:22:42;;;;;;;4.35;0.43;;;15.20;99.90;;;;;;5055327;28;20029;-75
2021/08/29 04:25:12;;;;;;;1.92;0.10;;;15.20;99.90;;;;;;5073095;28;20362;-75
2021/08/29 04:27:38;;;;;;;1.08;0.35;;;15.20;99.90;;;;;;5055169;28;20025;-75
2021/08/29 04:30:04;;;;;;;5.10;1.17;;;15.20;99.90;;;;;;5055278;28;20020;-75
2021/08/29 04:32:31;;;;;;;4.03;0.30;;;15.20;99.90;;;;;;5055371;28;20025;-76
2021/08/29 04:34:57;;;;;;;3.97;0.57;;;15.20;99.90;;;;;;5073123;28;20432;-76
2021/08/29 04:37:22;;;;;;;2.60;0.38;;;15.20;99.90;;;;;;5071907;28;20037;-76
2021/08/29 04:39:48;;;;;;;7.68;0.17;;;15.20;99.90;;;;;;5073348;28;20020;-74
2021/08/29 04:42:13;;;;;;;5.65;0.38;;;15.20;99.90;;;;;;5073121;28;20033;-74
2021/08/29 04:44:42;;;;;;;4.70;0.30;;;15.20;99.90;;;;;;5073001;28;20023;-74
2021/08/29 04:47:08;;;;;;;5.15;1.17;;;15.00;99.90;;;;;;5073605;28;20024;-76
2021/08/29 04:49:34;;;;;;;7.00;0.30;;;15.20;99.90;;;;;;5073297;28;20028;-75
2021/08/29 04:51:59;;;;;;;18.45;1.17;;;15.20;99.90;;;;;;5054941;28;20026;-75
2021/08/29 04:54:25;;;;;;;4.43;0.15;;;15.20;99.90;;;;;;5072961;28;20055;-75
2021/08/29 04:56:51;;;;;;;1.95;0.22;;;15.30;99.90;;;;;;5071664;28;20020;-76
2021/08/29 04:59:16;;;;;;;6.38;1.05;;;15.30;99.90;;;;;;5073157;28;20017;-76
2021/08/29 05:01:42;;;;;;;5.25;0.43;;;15.30;99.90;;;;;;5072963;28;20031;-76
2021/08/29 05:04:07;;;;;;;3.28;0.35;;;15.30;99.90;;;;;;5073343;28;20355;-76
2021/08/29 05:06:33;;;;;;;1.63;0.10;;;15.30;99.90;;;;;;5072795;28;20036;-76
2021/08/29 05:08:58;;;;;;;6.47;0.30;;;15.40;99.90;;;;;;5071498;28;20033;-76
2021/08/29 05:11:24;;;;;;;4.65;0.13;;;15.40;99.90;;;;;;5071581;28;20029;-76
2021/08/29 05:13:49;;;;;;;3.03;0.08;;;15.40;99.90;;;;;;5072755;28;20086;-76
2021/08/29 05:16:15;;;;;;;3.65;0.13;;;15.40;99.90;;;;;;5072812;28;20025;-75
2021/08/29 05:18:40;;;;;;;5.30;0.17;;;15.40;99.90;;;;;;5072800;28;20478;-76
2021/08/29 05:21:06;;;;;;;3.28;0.17;;;15.40;99.90;;;;;;5072859;28;20099;-75
2021/08/29 05:23:32;;;;;;;13.57;0.88;;;15.40;99.90;;;;;;5072851;28;20021;-75
2021/08/29 05:25:58;;;;;;;4.95;0.30;;;15.40;99.90;;;;;;5072753;28;20024;-76
2021/08/29 05:28:24;;;;;;;6.15;0.17;;;15.40;99.90;;;;;;5072631;28;20501;-76
2021/08/29 05:30:49;;;;;;;5.00;0.75;;;15.50;99.90;;;;;;5076679;28;20025;-76
2021/08/29 05:33:15;;;;;;;5.55;1.25;;;15.40;99.90;;;;;;5076200;28;20028;-76
2021/08/29 05:35:41;;;;;;;7.72;0.45;;;15.50;99.90;;;;;;5076616;28;20382;-75
2021/08/29 05:38:06;;;;;;;2.20;0.13;;;15.40;99.90;;;;;;5076537;28;20021;-77
2021/08/29 05:40:32;;;;;;;5.35;0.25;;;15.40;99.90;;;;;;5076336;28;20032;-77
2021/08/29 05:42:57;;;;;;;6.97;0.10;;;15.50;99.90;;;;;;5076221;28;20025;-74
2021/08/29 05:45:23;;;;;;;5.45;0.40;;;15.50;99.90;;;;;;5074893;28;20388;-77
2021/08/29 05:47:48;;;;;;;2.78;0.10;;;15.50;99.90;;;;;;5074765;28;20043;-77
2021/08/29 05:50:14;;;;;;;7.95;0.20;;;15.60;99.90;;;;;;5076706;28;20023;-77
2021/08/29 05:52:39;;;;;;;3.83;0.10;;;15.60;99.90;;;;;;5076108;28;20036;-77
2021/08/29 05:55:05;;;;;;;5.20;0.68;;;15.60;99.90;;;;;;5074617;28;20024;-77
2021/08/29 05:57:30;;;;;;;5.22;0.20;;;15.60;99.90;;;;;;5075726;28;20017;-77
2021/08/29 05:59:56;;;;;;;4.22;0.60;;;15.60;99.90;;;;;;5075780;28;20025;-77
2021/08/29 06:02:21;;;;;;;5.07;0.10;;;15.70;99.90;;;;;;5075764;28;20107;-77
2021/08/29 06:04:47;;;;;;;7.07;0.13;;;15.70;99.90;;;;;;5057622;28;20115;-77
2021/08/29 06:07:12;;;;;;;2.78;0.03;;;15.70;99.90;;;;;;5075692;28;20036;-77
2021/08/29 06:09:38;;;;;;;3.90;0.28;;;15.70;99.90;;;;;;5074279;28;20032;-77
2021/08/29 06:12:04;;;;;;;5.68;0.15;;;15.70;99.90;;;;;;5075650;28;20438;-77
2021/08/29 06:14:29;;;;;;;6.80;0.60;;;15.70;99.90;;;;;;5057561;28;20025;-77
2021/08/29 06:16:55;;;;;;;5.32;0.10;;;15.80;99.90;;;;;;5075492;28;20013;-77
2021/08/29 06:19:20;;;;;;;2.75;0.50;;;15.70;99.90;;;;;;5075592;28;20029;-76
2021/08/29 06:21:46;;;;;;;4.85;0.00;;;15.80;99.90;;;;;;5057498;28;20024;-75
2021/08/29 06:24:11;;;;;;;10.63;0.70;;;15.90;99.90;;;;;;5074128;28;20036;-77
2021/08/29 06:26:37;;;;;;;6.45;0.10;;;15.80;99.90;;;;;;5075579;28;20021;-76
2021/08/29 06:29:03;;;;;;;5.53;0.25;;;15.80;99.90;;;;;;5075436;28;20032;-76
2021/08/29 06:31:28;;;;;;;3.88;0.10;;;15.80;99.90;;;;;;5075160;28;20027;-76
2021/08/29 06:33:54;;;;;;;4.47;0.20;;;15.80;99.90;;;;;;5075079;28;20047;-77
2021/08/29 06:36:19;;;;;;;6.78;0.43;;;15.80;99.90;;;;;;5057185;28;20385;-76
2021/08/29 06:38:45;;;;;;;4.55;0.80;;;15.90;99.90;;;;;;5075087;28;20029;-76
2021/08/29 06:41:11;;;;;;;3.97;0.10;;;15.90;99.90;;;;;;5074116;28;20032;-76
2021/08/29 06:43:36;;;;;;;3.85;0.15;;;15.90;99.90;;;;;;5075030;28;20028;-74
2021/08/29 06:46:02;;;;;;;5.03;0.57;;;15.90;99.90;;;;;;5057008;28;20028;-74
2021/08/29 06:48:27;;;;;;;3.10;0.10;;;15.90;99.90;;;;;;5073648;28;20442;-74
2021/08/29 06:50:53;;;;;;;3.53;0.13;;;15.90;99.90;;;;;;5074808;28;20040;-76
2021/08/29 06:53:18;;;;;;;7.93;1.10;;;16.00;99.90;;;;;;5074800;28;20021;-76
2021/08/29 06:55:44;;;;;;;10.18;0.40;;;16.00;99.90;;;;;;5074726;28;20031;-75
2021/08/29 06:58:09;;;;;;;6.22;0.50;;;16.00;99.90;;;;;;5074775;28;20028;-74
2021/08/29 07:00:35;;;;;;;4.93;0.52;;;16.00;99.90;;;;;;5074735;28;20481;-74
2021/08/29 07:03:00;;;;;;;10.02;0.25;;;16.10;99.90;;;;;;5074903;28;20473;-74
2021/08/29 07:05:26;;;;;;;2.70;0.15;;;16.50;99.90;;;;;;5074814;28;20092;-75
2021/08/29 07:07:53;;;;;;;4.60;0.25;;;16.10;99.90;;;;;;5074940;28;20027;-77
2021/08/29 07:10:19;;;;;;;3.30;0.17;;;16.10;99.90;;;;;;5074310;28;20036;-74
2021/08/29 07:12:45;;;;;;;4.80;0.47;;;16.10;99.90;;;;;;5056184;28;20021;-75
2021/08/29 07:15:11;;;;;;;1.48;0.20;;;16.20;99.90;;;;;;5056189;28;20024;-75
2021/08/29 07:17:36;;;;;;;4.88;0.10;;;16.20;99.90;;;;;;5056376;28;20100;-75
2021/08/29 07:20:03;;;;;;;6.82;0.45;;;16.20;99.90;;;;;;5056381;28;20054;-75
2021/08/29 07:22:30;;;;;;;3.00;0.10;;;16.30;99.90;;;;;;5056573;28;20028;-75
2021/08/29 07:24:56;;;;;;;5.20;0.28;;;16.40;99.90;;;;;;5074580;28;20050;-76
2021/08/29 07:27:21;;;;;;;4.53;0.25;;;16.40;99.90;;;;;;5056228;28;20032;-76
2021/08/29 07:29:47;;;;;;;7.80;0.10;;;16.40;99.90;;;;;;5074042;28;20020;-75
2021/08/29 07:32:13;;;;;;;10.45;0.28;;;16.50;99.90;;;;;;5073844;28;20429;-75
2021/08/29 07:34:40;;;;;;;4.70;0.22;;;16.60;99.90;;;;;;5077254;28;20058;-75
2021/08/29 07:37:06;;;;;;;3.92;0.30;;;16.60;99.90;;;;;;5078201;28;20476;-75
2021/08/29 07:39:32;;;;;;;5.43;0.10;;;16.70;99.90;;;;;;5077852;28;20021;-75
2021/08/29 07:41:57;;;;;;;4.53;0.10;;;16.80;99.90;;;;;;5078191;28;20024;-75
2021/08/29 07:44:23;;;;;;;6.20;0.30;;;16.80;99.90;;;;;;5077947;28;20078;-75
2021/08/29 07:46:48;;;;;;;4.88;0.75;;;16.80;99.90;;;;;;5077641;28;20028;-75
2021/08/29 07:49:14;;;;;;;7.20;0.52;;;16.80;99.90;;;;;;5077358;28;20017;-75
2021/08/29 07:51:39;;;;;;;1.80;0.40;;;16.80;99.90;;;;;;5078022;28;20031;-75
2021/08/29 07:54:05;;;;;;;3.70;0.65;;;16.80;99.90;;;;;;5077098;28;20024;-75
2021/08/29 07:56:30;;;;;;;5.38;0.65;;;16.70;99.90;;;;;;5059355;28;20032;-75
2021/08/29 07:58:56;;;;;;;1.52;0.13;;;16.70;99.90;;;;;;5059460;28;20052;-75
2021/08/29 08:01:21;;;;;;;4.32;0.50;;;16.80;99.90;;;;;;5077575;28;20059;-75
2021/08/29 08:03:47;;;;;;;1.17;0.10;;;16.70;99.90;;;;;;5077920;28;20037;-75
2021/08/29 08:06:12;;;;;;;3.63;0.10;;;16.70;99.90;;;;;;5077411;28;20119;-75
2021/08/29 08:08:38;;;;;;;3.55;0.20;;;16.70;99.90;;;;;;5077419;28;20032;-75
2021/08/29 08:11:04;;;;;;;3.08;0.10;;;16.70;99.90;;;;;;5059483;28;20028;-75
2021/08/29 08:13:33;;;;;;;8.75;1.35;;;16.60;99.90;;;;;;5074948;28;20071;-75
2021/08/29 08:15:59;;;;;;;7.90;0.38;;;16.60;99.90;;;;;;5073660;28;20021;-75
2021/08/29 08:18:25;;;;;;;7.40;0.20;;;16.60;99.90;;;;;;5073323;28;20020;-75
2021/08/29 08:20:51;;;;;;;7.70;0.20;;;16.60;99.90;;;;;;5073328;28;20027;-75
2021/08/29 08:23:17;;;;;;;4.80;0.10;;;16.60;99.90;;;;;;5073681;28;20028;-75
2021/08/29 08:25:43;;;;;;;4.18;0.20;;;16.70;99.90;;;;;;5071985;28;20032;-75
2021/08/29 08:28:08;;;;;;;3.60;0.10;;;16.60;99.90;;;;;;5055200;28;20028;-75
2021/08/29 08:30:34;;;;;;;12.00;1.20;;;16.70;99.90;;;;;;5073142;28;20025;-75
2021/08/29 08:32:59;;;;;;;4.13;0.22;;;16.60;99.90;;;;;;5073190;28;20037;-74
2021/08/29 08:35:25;;;;;;;7.78;0.68;;;16.70;99.90;;;;;;5073321;28;20017;-75
2021/08/29 08:37:51;;;;;;;3.75;0.30;;;16.70;99.90;;;;;;5055254;28;20063;-77
2021/08/29 08:40:20;;;;;;;2.47;0.57;;;16.80;99.90;;;;;;5073393;28;20032;-77
2021/08/29 08:42:46;;;;;;;5.55;0.10;;;16.80;99.90;;;;;;5073200;28;20028;-77
2021/08/29 08:45:11;;;;;;;5.47;0.43;;;16.90;99.90;;;;;;5073096;28;20070;-75
2021/08/29 08:47:41;;;;;;;4.40;0.65;;;16.90;99.90;;;;;;5073689;28;20059;-76
2021/08/29 08:50:08;;;;;;;4.70;0.10;;;16.90;99.90;;;;;;5073903;28;20078;-77
2021/08/29 08:52:34;;;;;;;4.40;0.20;;;16.80;99.90;;;;;;5073035;28;20030;-77
2021/08/29 08:55:01;;;;;;;3.50;0.50;;;16.70;99.90;;;;;;5055042;28;20027;-77
2021/08/29 08:57:27;;;;;;;6.85;0.98;;;16.70;99.90;;;;;;5073027;28;20485;-77
2021/08/29 08:59:52;;;;;;;5.25;0.50;;;16.70;99.90;;;;;;5073415;28;20025;-76
2021/08/29 09:02:22;;;;;;;8.23;0.75;;;16.70;99.90;;;;;;5071954;28;20029;-75
2021/08/29 09:04:48;;;;;;;4.88;0.55;;;16.70;99.90;;;;;;5073692;28;20034;-75
2021/08/29 09:07:14;;;;;;;4.43;0.30;;;16.70;99.90;;;;;;5076880;28;20020;-75
2021/08/29 09:09:40;;;;;;;6.00;0.80;;;16.80;99.90;;;;;;5076689;28;20038;-75
2021/08/29 09:12:06;;;;;;;4.18;0.38;;;16.80;99.90;;;;;;5076745;28;20509;-75
2021/08/29 09:14:44;;;;;;;5.22;0.55;;;16.90;99.90;;;;;;5076653;28;20025;-75
2021/08/29 09:17:37;;;;;;;7.75;0.15;;;16.90;99.90;;;;;;5058787;28;20108;-75
2021/08/29 09:20:27;;;;;;;0.95;0.00;;;17.00;99.90;;;;;;5076601;28;20366;-75
2021/08/29 09:23:06;;;;;;;8.13;0.60;;;17.10;99.90;;;;;;5076586;28;20077;-75
2021/08/29 09:25:35;;;;;;;6.43;0.63;;;17.20;99.90;;;;;;5058621;28;20381;-75
2021/08/29 09:28:02;;;;;;;4.15;0.13;;;17.20;99.90;;;;;;5076960;28;20013;-75
2021/08/29 09:30:30;;;;;;;6.88;0.38;;;17.30;99.90;;;;;;5076895;28;20017;-75
2021/08/29 09:33:03;;;;;;;8.88;0.47;;;17.30;99.90;;;;;;5076309;28;20020;-75
2021/08/29 09:35:32;;;;;;;5.03;0.10;;;17.40;99.90;;;;;;5058783;28;20021;-78
2021/08/29 09:37:58;;;;;;;;;;;17.50;99.90;;;;;;5077134;28;20021;-74
2021/08/29 09:40:31;;;;;;;6.82;0.30;;;17.50;99.90;;;;;;5076555;28;20250;-74
2021/08/29 09:42:58;;;;;;;7.32;0.30;;;17.60;99.90;;;;;;5076418;28;20039;-78
2021/08/29 09:45:32;;;;;;;3.50;0.00;;;17.70;99.90;;;;;;5058516;28;20051;-74
2021/08/29 09:48:06;;;;;;;4.70;0.73;;;17.90;99.90;;;;;;5076363;28;20028;-76
2021/08/29 09:50:33;;;;;;;3.65;0.65;;;18.00;99.90;;;;;;5076306;28;20028;-76
2021/08/29 09:53:03;;;;;;;4.40;0.22;;;18.00;99.90;;;;;;5076305;28;20025;-76
2021/08/29 09:55:38;;;;;;;4.85;1.20;;;18.00;99.90;;;;;;5076138;28;20099;-76
2021/08/29 09:58:20;;;;;;;4.97;0.25;;;17.90;99.90;;;;;;5076523;28;20028;-76
2021/08/29 10:01:12;;;;;;;5.30;0.17;;;17.80;99.90;;;;;;5074992;28;20429;-77
2021/08/29 10:03:43;;;;;;;5.88;0.60;;;17.70;99.90;;;;;;5119693;22;20051;-76
2021/08/29 10:06:21;;;;;;;5.45;0.22;;;17.70;99.90;;;;;;5096579;28;20483;-76
2021/08/29 10:08:51;;;;;;;5.43;0.10;;;17.70;99.90;;;;;;5096178;28;20095;-76
2021/08/29 10:11:18;;;;;;;2.95;0.40;;;17.70;99.90;;;;;;5077783;28;20123;-74
2021/08/29 10:13:44;;;;;;;4.60;0.05;;;17.60;99.90;;;;;;5096016;28;20020;-76
2021/08/29 10:16:11;;;;;;;6.97;1.13;;;17.50;99.90;;;;;;5094741;28;20032;-76
2021/08/29 10:18:40;;;;;;;4.95;0.30;;;17.50;99.90;;;;;;5096037;28;20024;-76
2021/08/29 10:21:11;;;;;;;5.13;1.58;;;17.30;99.90;;;;;;5096126;28;20028;-75
2021/08/29 10:23:42;;;;;;;6.95;1.05;;;17.30;99.90;;;;;;5077895;28;20070;-76
2021/08/29 10:26:12;;;;;;;9.23;0.73;;;17.20;99.90;;;;;;5089657;22;20382;-76
2021/08/29 10:28:42;;;;;;;3.30;0.35;;;17.20;99.90;;;;;;5095871;28;20032;-77
2021/08/29 10:31:12;;;;;;;8.57;0.80;;;17.10;99.90;;;;;;5095775;28;20028;-75
2021/08/29 10:33:39;;;;;;;5.63;0.52;;;17.20;99.90;;;;;;5089243;23;20052;-76
2021/08/29 10:36:07;;;;;;;8.07;0.23;;;17.20;99.90;;;;;;5095489;28;20027;-77
2021/08/29 10:38:36;;;;;;;9.25;0.10;;;17.30;99.90;;;;;;5077449;28;20111;-76
2021/08/29 10:41:02;;;;;;;3.95;0.20;;;17.30;99.90;;;;;;5096233;28;20020;-76
2021/08/29 10:43:28;;;;;;;14.15;1.33;;;17.30;99.90;;;;;;5095244;28;20020;-75
2021/08/29 10:45:54;;;;;;;6.38;0.73;;;17.30;99.90;;;;;;5095264;28;20162;-76
2021/08/29 10:48:21;;;;;;;4.30;0.55;;;17.30;99.90;;;;;;5095283;28;20417;-77
2021/08/29 10:50:48;;;;;;;6.05;0.28;;;17.30;99.90;;;;;;5095335;28;20036;-77
2021/08/29 10:53:39;;;;;;;5.28;0.32;;;17.30;99.90;;;;;;5095047;28;20109;-75
2021/08/29 10:56:23;;;;;;;5.90;0.93;;;17.20;99.90;;;;;;5077086;28;20031;-75
2021/08/29 10:59:06;;;;;;;6.88;0.52;;;17.20;99.90;;;;;;5095715;28;20469;-76
2021/08/29 11:01:38;;;;;;;9.07;0.68;;;17.20;99.90;;;;;;5094848;28;20032;-74
2021/08/29 11:04:21;;;;;;;4.28;0.00;;;17.20;99.90;;;;;;5094912;28;20111;-74
2021/08/29 11:06:49;;;;;;;4.80;0.77;;;17.20;99.90;;;;;;5076606;28;20077;-74
2021/08/29 11:09:33;;;;;;;3.67;0.63;;;17.20;99.90;;;;;;5094779;28;20024;-74
2021/08/29 11:11:59;;;;;;;4.07;0.55;;;17.10;99.90;;;;;;5094964;28;20427;-74
2021/08/29 11:14:47;;;;;;;3.95;0.20;;;17.10;99.90;;;;;;5094598;28;20016;-74
2021/08/29 11:17:15;;;;;;;4.13;0.30;;;17.10;99.90;;;;;;5094677;28;20043;-74
2021/08/29 11:19:43;;;;;;;3.55;0.35;;;17.10;99.90;;;;;;5095040;28;20062;-75
2021/08/29 11:22:08;;;;;;;6.10;0.98;;;17.10;99.90;;;;;;5094679;28;20103;-74
2021/08/29 11:25:07;;;;;;;2.35;0.40;;;17.10;99.90;;;;;;5076502;28;20508;-73
2021/08/29 11:27:35;;;;;;;5.55;0.28;;;17.10;99.90;;;;;;5094102;28;20024;-74
2021/08/29 11:30:08;;;;;;;5.82;0.20;;;17.20;99.90;;;;;;5094494;28;20077;-73
2021/08/29 11:32:42;;;;;;;5.50;0.52;;;17.20;99.90;;;;;;5094689;28;20028;-74
2021/08/29 11:35:24;;;;;;;4.53;0.30;;;17.20;99.90;;;;;;5094749;28;20103;-73
2021/08/29 11:38:09;;;;;;;5.72;0.20;;;17.30;99.90;;;;;;5076503;28;20078;-76
2021/08/29 11:41:01;;;;;;;5.43;0.82;;;17.40;99.90;;;;;;5075632;28;20071;-75
2021/08/29 11:43:27;;;;;;;4.30;0.43;;;17.50;99.90;;;;;;5094656;28;20496;-73
2021/08/29 11:46:23;;;;;;;7.93;0.38;;;17.60;99.90;;;;;;5094319;28;20103;-75
2021/08/29 11:49:03;;;;;;;12.27;0.50;;;17.60;99.90;;;;;;5077977;28;20124;-73
2021/08/29 11:51:35;;;;;;;3.60;0.25;;;17.60;99.90;;;;;;5075947;28;20020;-73
2021/08/29 11:54:03;;;;;;;3.17;0.22;;;17.70;99.90;;;;;;5075869;28;20016;-74
2021/08/29 11:56:31;;;;;;;7.50;0.95;;;17.70;99.90;;;;;;5094381;28;20020;-73
2021/08/29 11:59:01;;;;;;;9.07;1.05;;;17.60;99.90;;;;;;5075941;28;20027;-73
2021/08/29 12:01:31;;;;;;;6.25;0.47;;;17.60;99.90;;;;;;5093986;28;20066;-76
2021/08/29 12:03:59;;;;;;;9.98;0.65;;;17.60;99.90;;;;;;5094338;28;20489;-73
2021/08/29 12:06:37;;;;;;;4.55;0.50;;;17.50;99.90;;;;;;5075746;28;20066;-75
2021/08/29 12:09:14;;;;;;;6.72;0.65;;;17.40;99.90;;;;;;5075682;28;20046;-75
2021/08/29 12:11:40;;;;;;;6.85;0.32;;;17.40;99.90;;;;;;5094046;28;20026;-73
2021/08/29 12:14:14;;;;;;;10.75;0.38;;;17.40;99.90;;;;;;5093898;28;20016;-73
2021/08/29 12:16:49;;;;;;;5.32;0.50;;;17.50;99.90;;;;;;5093556;28;20023;-73
2021/08/29 12:19:17;;;;;;;3.75;0.35;;;17.40;99.90;;;;;;5111623;22;20383;-75
2021/08/29 12:21:43;;;;;;;3.58;0.68;;;17.40;99.90;;;;;;5093665;28;20065;-74
2021/08/29 12:24:14;;;;;;;2.45;0.00;;;17.40;99.90;;;;;;5075445;28;20470;-73
2021/08/29 12:26:40;;;;;;;5.70;0.38;;;17.40;99.90;;;;;;5093473;28;20485;-74
2021/08/29 12:29:07;;;;;;;4.38;0.10;;;17.30;99.90;;;;;;5094060;28;20492;-74
2021/08/29 12:31:38;;;;;;;4.05;0.40;;;17.30;99.90;;;;;;5075344;28;20030;-75
2021/08/29 12:34:04;;;;;;;5.20;0.38;;;17.20;99.90;;;;;;5093363;28;20024;-75
2021/08/29 12:36:31;;;;;;;2.00;0.13;;;17.20;99.90;;;;;;5075246;28;20024;-75
2021/08/29 12:38:57;;;;;;;1.42;0.25;;;17.20;99.90;;;;;;5093149;28;20099;-75
2021/08/29 12:41:26;;;;;;;5.28;0.20;;;17.40;99.90;;;;;;5093375;28;20028;-74
2021/08/29 12:44:01;;;;;;;4.63;0.25;;;17.50;99.90;;;;;;5093328;28;20024;-75
2021/08/29 12:46:27;;;;;;;1.90;0.15;;;18.20;99.90;;;;;;5093290;28;20032;-75
2021/08/29 12:48:52;;;;;;;2.55;0.13;;;17.90;99.90;;;;;;5075140;28;20112;-74
2021/08/29 12:51:20;;;;;;;5.43;0.10;;;18.00;99.90;;;;;;5093041;28;20449;-75
2021/08/29 12:53:46;;;;;;;2.30;0.00;;;18.10;99.90;;;;;;5093340;28;20496;-76